Amorita, Oklahoma
Current Conditions -  °F | °C
As of 6:30 AM on Friday 24 Oct 2014 (Local Time) from KAVK Reporting Station
Haze Haze  
Wind Chill: 55°   Ceiling: Unl
Heat Index: 55°   Visibility: 5mi
Dew Point: 55°   Wind: 6mph
Humidity: 100%   Direction: 170°S
Pressure: 30.05"   Gusts: NA
Location:  36.92°N, 98.29°W
Report Text: KAVK 241130Z AUTO 17005KT 5SM BR CLR 13/13 A3005 RMK AO2
Loading
Personal Weather Stations






























Interactive Weather Map
Tropical Storm Tracking
New forecast layout! Learn more

10-Day Weather Forecast

Advertisements
Track Severe Weather on mobile